Latest Weather Observations for Brisbane

IDQ60901

Issued at 5:11 pm EST Saturday 29 August 2015 (issued every 10 minutes, with the page automatically refreshed every 10 minutes)

About weather observations | Map of Brisbane area stations | Latest observations for Brisbane area | Other Formats
Station Details ID: 040913 Name: BRISBANE Lat: -27.48 Lon: 153.04 Height: 8.13 m
Data from the previous 72 hours. | See also: Recent months at Brisbane
Date/Time
EST
Tmp

°C
App
Tmp
°C
Dew
Point
°C
Rel
Hum
%
Delta-T

°C
Wind Press
QNH
hPa
Press
MSL
hPa
Rain
since
9 am
mm
Dir
 
Spd
km/h
Gust
km/h
Spd
kts
Gust
kts
29/05:00pm 17.0 18.4 14.3 84 1.5 CALM 0 0 0 0 1019.3 1019.3 4.8
29/04:30pm 19.2 18.8 12.9 67 3.6 E 7 13 4 7 1018.6 1018.6 0.0
29/04:00pm 20.0 19.3 12.0 60 4.4 NNE 7 17 4 9 1018.6 1018.6 0.0
29/03:30pm 20.8 19.6 11.7 56 5.1 NE 9 19 5 10 1018.2 1018.2 0.0
29/03:00pm 21.0 20.1 11.3 54 5.3 ENE 7 13 4 7 1018.5 1018.5 0.0
29/02:30pm 21.5 20.2 11.2 52 5.7 ENE 9 13 5 7 1018.9 1018.9 0.0
29/02:00pm 22.3 21.0 11.1 49 6.2 ENE 9 15 5 8 1019.2 1019.2 0.0
29/01:30pm 21.7 20.6 10.8 50 6.0 NE 7 15 4 8 1019.9 1019.9 0.0
29/01:00pm 22.1 21.2 11.2 50 6.0 NE 7 13 4 7 1020.1 1020.1 0.0
29/12:30pm 22.5 21.8 11.3 49 6.2 ENE 6 11 3 6 1020.7 1020.7 0.0
29/12:00pm 22.2 21.8 11.0 49 6.2 NW 4 9 2 5 1021.2 1021.2 0.0
29/11:30am 22.6 22.7 11.4 49 6.3 SSE 2 6 1 3 1021.7 1021.7 0.0
29/11:00am 21.8 21.0 11.2 51 5.8 WSW 6 11 3 6 1022.3 1022.3 0.0
29/10:30am 21.7 21.4 11.4 52 5.7 WSW 4 9 2 5 1022.7 1022.7 0.0
29/10:00am 20.2 19.1 10.0 52 5.5 SW 6 7 3 4 1023.0 1023.0 0.0
29/09:30am 18.7 17.6 10.0 57 4.6 WSW 6 11 3 6 1023.2 1023.2 0.0
29/09:00am 17.4 16.1 9.1 58 4.3 SW 6 13 3 7 1023.4 1023.4 0.2
29/08:30am 16.3 14.8 9.0 62 3.8 SW 7 13 4 7 1023.4 1023.4 0.2
29/08:00am 14.1 12.7 8.7 70 2.7 WSW 6 7 3 4 1023.2 1023.2 0.2
29/07:30am 13.3 12.1 8.0 70 2.6 SW 4 7 2 4 1023.0 1023.0 0.2
29/07:00am 12.6 11.6 7.5 71 2.5 SSW 2 6 1 3 1022.8 1022.8 0.2
29/06:30am 12.3 11.0 7.6 73 2.3 SW 4 9 2 5 1022.7 1022.7 0.2
29/06:00am 12.1 10.4 7.4 73 2.3 SW 6 11 3 6 1022.4 1022.4 0.2
29/05:30am 12.0 10.3 7.7 75 2.1 WSW 6 9 3 5 1022.1 1022.1 0.2
29/05:00am 12.1 10.8 7.8 75 2.1 SW 4 7 2 4 1021.8 1021.8 0.2
29/04:30am 12.1 10.9 8.0 76 2.0 WSW 4 7 2 4 1021.7 1021.7 0.2
29/04:00am 12.3 10.8 8.6 78 1.8 SW 6 11 3 6 1021.7 1021.7 0.2
29/03:30am 12.3 11.4 9.3 82 1.5 WSW 4 7 2 4 1022.1 1022.1 0.2
29/03:00am 12.5 11.7 9.5 82 1.5 WSW 4 7 2 4 1022.0 1022.0 0.2
29/02:30am 12.7 12.0 10.1 84 1.3 WSW 4 7 2 4 1022.2 1022.2 0.2
29/02:00am 12.5 11.9 10.4 87 1.1 SW 4 7 2 4 1022.2 1022.2 0.2
29/01:30am 12.5 12.2 10.2 86 1.2 SSW 2 6 1 3 1022.2 1022.2 0.2
29/01:00am 13.2 13.0 10.4 83 1.4 WSW 2 6 1 3 1022.4 1022.4 0.2
29/12:30am 13.3 12.9 11.2 87 1.1 WSW 4 6 2 3 1022.5 1022.5 0.2
29/12:00am 13.5 13.8 12.1 91 0.8 WSW 2 4 1 2 1022.6 1022.6 0.2
 
Date/Time
EST
Tmp

°C
App
Tmp
°C
Dew
Point
°C
Rel
Hum
%
Delta-T

°C
Wind Press
QNH
hPa
Press
MSL
hPa
Rain
since
9 am
mm
Dir
 
Spd
km/h
Gust
km/h
Spd
kts
Gust
kts
28/11:30pm 12.5 12.9 11.2 92 0.7 CALM 0 0 0 0 1022.4 1022.4 0.2
28/11:00pm 12.6 13.0 11.2 91 0.7 CALM 0 0 0 0 1022.2 1022.2 0.2
28/10:30pm 13.1 13.6 11.7 91 0.7 CALM 0 0 0 0 1022.4 1022.4 0.2
28/10:00pm 13.3 13.8 11.5 89 1.0 CALM 0 0 0 0 1022.5 1022.5 0.2
28/09:30pm 13.6 14.1 11.5 87 1.1 CALM 0 0 0 0 1022.7 1022.7 0.2
28/09:00pm 13.9 14.3 11.4 85 1.3 CALM 0 0 0 0 1022.7 1022.7 0.2
28/08:30pm 14.3 14.8 11.5 83 1.5 CALM 0 0 0 0 1022.5 1022.5 0.2
28/08:00pm 14.6 15.0 11.2 80 1.8 CALM 0 0 0 0 1022.2 1022.2 0.2
28/07:30pm 15.6 16.1 11.6 77 2.2 CALM 0 0 0 0 1021.8 1021.8 0.2
28/07:00pm 16.2 16.6 11.2 72 2.7 CALM 0 0 0 0 1021.5 1021.5 0.2
28/06:30pm 17.3 17.3 11.3 68 3.2 E 2 4 1 2 1020.7 1020.7 0.2
28/06:00pm 18.5 17.8 12.0 66 3.6 E 7 9 4 5 1020.1 1020.1 0.2
28/05:30pm 19.5 19.0 12.8 65 3.8 ENE 7 11 4 6 1019.6 1019.6 0.2
28/05:00pm 20.3 20.1 13.5 65 3.9 ENE 7 13 4 7 1019.3 1019.3 0.2
28/04:30pm 21.3 20.9 13.0 59 4.7 ENE 7 15 4 8 1019.1 1019.1 0.2
28/04:00pm 22.1 21.0 12.1 53 5.6 ENE 9 15 5 8 1018.7 1018.7 0.2
28/03:30pm 23.1 22.4 12.1 50 6.2 NE 7 13 4 7 1018.6 1018.6 0.2
28/03:00pm 24.4 24.1 11.4 44 7.3 SE 4 7 2 4 1018.5 1018.5 0.2
28/02:30pm 24.3 24.1 11.9 45 7.0 W 4 9 2 5 1018.7 1018.7 0.2
28/02:00pm 23.5 22.8 11.9 48 6.5 SSW 7 19 4 10 1019.0 1019.0 0.2
28/01:30pm 23.4 22.4 11.1 46 6.9 SSW 7 13 4 7 1019.3 1019.3 0.2
28/01:00pm 23.3 22.6 11.4 47 6.6 SSW 6 11 3 6 1019.9 1019.9 0.2
28/12:30pm 22.6 22.1 12.5 53 5.7 WSW 7 13 4 7 1020.2 1020.2 0.2
28/12:00pm 21.6 21.4 11.9 54 5.4 SW 4 7 2 4 1020.6 1020.6 0.2
28/11:30am 21.5 21.2 12.6 57 5.0 WSW 6 11 3 6 1021.2 1021.2 0.2
28/11:00am 20.0 19.5 12.7 63 4.1 WSW 7 13 4 7 1022.0 1022.0 0.2
28/10:30am 19.5 19.2 12.8 65 3.8 SW 6 13 3 7 1022.2 1022.2 0.2
28/10:00am 18.5 18.6 14.0 75 2.6 WSW 6 11 3 6 1022.5 1022.5 0.2
28/09:30am 17.6 17.6 14.3 81 1.9 SW 7 13 4 7 1022.3 1022.3 0.0
28/09:00am 17.5 18.3 14.8 84 1.6 WSW 4 6 2 3 1022.4 1022.4 5.0
28/08:30am 17.1 17.9 14.7 86 1.4 WSW 4 6 2 3 1022.3 1022.3 4.8
28/08:00am 16.5 17.3 14.9 90 0.9 SW 4 7 2 4 1022.0 1022.0 4.8
28/07:30am 15.8 17.3 14.7 93 0.6 CALM 0 4 0 2 1021.7 1021.7 4.8
28/07:00am 15.5 16.2 14.5 94 0.6 SW 4 7 2 4 1021.7 1021.7 4.8
28/06:30am 15.3 15.9 14.2 93 0.6 SSW 4 7 2 4 1021.4 1021.4 4.8
28/06:00am 15.3 16.3 14.2 93 0.6 SSW 2 4 1 2 1021.1 1021.1 4.8
28/05:30am 15.2 16.5 14.2 94 0.6 CALM 0 6 0 3 1020.8 1020.8 4.8
28/05:00am 15.0 15.2 14.2 95 0.5 SW 6 11 3 6 1020.4 1020.4 4.8
28/04:30am 15.0 15.2 14.2 95 0.5 SW 6 9 3 5 1020.0 1020.0 4.8
28/04:00am 15.0 15.6 14.2 95 0.5 SSW 4 7 2 4 1019.9 1019.9 4.6
28/03:30am 14.8 15.2 13.8 94 0.6 SW 4 7 2 4 1020.0 1020.0 4.6
28/03:00am 15.0 15.5 14.0 94 0.6 SW 4 7 2 4 1020.2 1020.2 4.4
28/02:30am 15.0 15.1 14.0 94 0.6 SSW 6 7 3 4 1020.3 1020.3 4.2
28/02:00am 15.0 16.2 13.9 93 0.6 CALM 0 0 0 0 1020.4 1020.4 3.8
28/01:30am 15.0 15.9 13.9 93 0.6 WSW 2 6 1 3 1021.2 1021.2 3.8
28/01:00am 15.2 16.1 13.9 92 0.7 SSW 2 6 1 3 1021.0 1021.0 3.6
28/12:30am 15.2 16.0 13.7 91 0.8 SSW 2 4 1 2 1021.2 1021.2 2.0
28/12:00am 15.1 15.9 13.6 91 0.8 SW 2 6 1 3 1021.2 1021.2 1.4
 
Date/Time
EST
Tmp

°C
App
Tmp
°C
Dew
Point
°C
Rel
Hum
%
Delta-T

°C
Wind Press
QNH
hPa
Press
MSL
hPa
Rain
since
9 am
mm
Dir
 
Spd
km/h
Gust
km/h
Spd
kts
Gust
kts
27/11:30pm 14.9 15.6 13.4 91 0.8 SSW 2 4 1 2 1021.2 1021.2 1.4
27/11:00pm 14.9 15.2 13.3 90 0.9 SW 4 9 2 5 1021.3 1021.3 1.4
27/10:30pm 15.3 15.3 13.7 90 0.9 SW 6 11 3 6 1021.3 1021.3 1.4
27/10:00pm 15.6 16.5 14.0 90 0.9 SW 2 6 1 3 1021.4 1021.4 1.4
27/09:30pm 15.6 16.9 14.0 90 0.9 CALM 0 0 0 0 1021.3 1021.3 1.4
27/09:00pm 15.5 16.7 13.9 90 0.9 CALM 0 0 0 0 1021.5 1021.5 1.4
27/08:30pm 15.3 16.5 13.7 90 0.9 CALM 0 0 0 0 1021.3 1021.3 1.4
27/08:00pm 15.2 16.4 13.7 91 0.8 CALM 0 0 0 0 1021.3 1021.3 1.4
27/07:30pm 15.3 16.4 13.5 89 1.0 CALM 0 0 0 0 1021.0 1021.0 1.4
27/07:00pm 15.2 16.3 13.4 89 1.0 CALM 0 0 0 0 1020.6 1020.6 1.4
27/06:30pm 15.4 16.2 13.6 89 1.0 SW 2 6 1 3 1020.6 1020.6 1.4
27/06:00pm 15.4 16.1 13.4 88 1.1 WSW 2 6 1 3 1020.4 1020.4 1.4
27/05:30pm 15.6 16.3 13.4 87 1.2 SW 2 6 1 3 1020.3 1020.3 1.4
27/05:00pm 15.9 16.7 13.7 87 1.2 SSE 2 4 1 2 1020.1 1020.1 1.4
27/04:30pm 15.8 15.8 13.6 87 1.2 S 6 9 3 5 1019.7 1019.7 1.4
27/04:00pm 15.7 16.4 13.4 86 1.3 SE 2 6 1 3 1020.0 1020.0 1.2
27/03:30pm 16.0 15.7 12.7 81 1.8 SW 6 9 3 5 1020.3 1020.3 0.8
27/03:00pm 16.9 16.3 12.2 74 2.6 SW 7 13 4 7 1019.9 1019.9 0.2
27/02:30pm 18.2 16.9 11.3 64 3.8 WSW 9 17 5 9 1019.7 1019.7 0.2
27/02:00pm 20.2 18.0 9.2 49 5.8 WSW 11 24 6 13 1020.0 1020.0 0.2
27/01:30pm 22.5 21.1 7.1 37 7.9 SSW 4 9 2 5 1019.1 1019.1 0.0
27/01:00pm 22.8 20.8 6.1 34 8.5 SW 6 9 3 5 1019.2 1019.2 0.0
27/12:30pm 23.0 21.4 6.3 34 8.5 S 4 9 2 5 1019.7 1019.7 0.0
27/12:00pm 22.6 20.5 6.0 34 8.4 SSW 6 11 3 6 1020.2 1020.2 0.0
27/11:30am 22.4 20.4 6.2 35 8.2 SSW 6 7 3 4 1020.3 1020.3 0.0
27/11:00am 21.6 19.7 6.7 38 7.6 SW 6 13 3 7 1020.8 1020.8 0.0
27/10:30am 21.1 19.6 6.6 39 7.3 SSW 4 11 2 6 1020.9 1020.9 0.0
27/10:00am 20.2 18.7 6.9 42 6.7 S 4 9 2 5 1021.1 1021.1 0.0
27/09:30am 19.6 18.5 8.6 49 5.7 SSW 4 9 2 5 1021.6 1021.6 0.0
27/09:00am 18.9 18.3 8.8 52 5.2 SSW 2 6 1 3 1021.8 1021.8 0.0
27/08:30am 18.6 17.9 8.6 52 5.2 WSW 2 4 1 2 1021.8 1021.8 0.0
27/08:00am 18.4 18.2 8.9 54 4.9 CALM 0 0 0 0 1021.6 1021.6 0.0
27/07:30am 17.9 17.3 9.0 56 4.6 SE 2 4 1 2 1021.3 1021.3 0.0
27/07:00am 17.4 17.2 9.1 58 4.3 CALM 0 4 0 2 1021.1 1021.1 0.0
27/06:30am 17.0 16.2 8.2 56 4.5 WSW 2 6 1 3 1020.6 1020.6 0.0
27/06:00am 16.9 16.2 8.6 58 4.2 SW 2 6 1 3 1020.4 1020.4 0.0
27/05:30am 17.3 16.2 8.4 56 4.6 SW 4 7 2 4 1020.3 1020.3 0.0
27/05:00am 16.4 16.5 10.0 66 3.4 CALM 0 0 0 0 1019.7 1019.7 0.0
27/04:30am 16.5 15.7 9.7 64 3.6 SSE 4 6 2 3 1019.9 1019.9 0.0
27/04:00am 16.5 16.3 9.2 62 3.8 CALM 0 0 0 0 1019.9 1019.9 0.0
27/03:30am 17.0 16.4 8.9 59 4.2 SW 2 4 1 2 1020.1 1020.1 0.0
27/03:00am 16.5 16.6 10.1 66 3.4 CALM 0 0 0 0 1019.8 1019.8 0.0
27/02:30am 16.3 16.8 11.7 74 2.5 CALM 0 0 0 0 1020.0 1020.0 0.0
27/02:00am 16.8 17.3 11.5 71 2.9 CALM 0 0 0 0 1019.9 1019.9 0.0
27/01:30am 17.3 17.5 12.0 71 2.9 SSW 2 4 1 2 1020.1 1020.1 0.0
27/01:00am 18.0 17.8 11.8 67 3.4 SW 4 9 2 5 1020.2 1020.2 0.0
27/12:30am 18.2 18.1 10.8 62 4.0 WSW 2 6 1 3 1020.3 1020.3 0.0
27/12:00am 17.8 17.7 12.0 69 3.2 W 4 7 2 4 1020.5 1020.5 0.0
 
Date/Time
EST
Tmp

°C
App
Tmp
°C
Dew
Point
°C
Rel
Hum
%
Delta-T

°C
Wind Press
QNH
hPa
Press
MSL
hPa
Rain
since
9 am
mm
Dir
 
Spd
km/h
Gust
km/h
Spd
kts
Gust
kts
26/11:30pm 17.1 18.5 15.3 89 1.0 WSW 2 2 1 1 1020.9 1020.9 0.0
26/11:00pm 17.7 19.7 15.9 89 1.1 CALM 0 2 0 1 1021.1 1021.1 0.0
26/10:30pm 18.3 20.3 16.1 87 1.3 CALM 0 0 0 0 1020.8 1020.8 0.0
26/10:00pm 18.1 19.8 16.1 88 1.2 NE 2 7 1 4 1020.7 1020.7 0.0
26/09:30pm 18.4 20.6 16.4 88 1.2 CALM 0 0 0 0 1020.9 1020.9 0.0
26/09:00pm 19.2 20.8 16.8 86 1.4 NW 4 6 2 3 1020.7 1020.7 0.0
26/08:30pm 19.2 20.9 16.2 83 1.8 NW 2 4 1 2 1020.6 1020.6 0.0
26/08:00pm 19.9 21.6 16.3 80 2.2 E 2 6 1 3 1020.4 1020.4 0.0
26/07:30pm 20.1 21.9 16.5 80 2.2 NNE 2 6 1 3 1020.1 1020.1 0.0
26/07:00pm 20.0 21.0 15.4 75 2.7 NE 4 6 2 3 1019.7 1019.7 0.0
26/06:30pm 20.6 21.6 15.4 72 3.1 ENE 4 7 2 4 1019.4 1019.4 0.0
26/06:00pm 21.3 21.8 14.9 67 3.8 ENE 6 9 3 5 1019.0 1019.0 0.0
26/05:30pm 21.8 22.1 14.4 63 4.3 NE 6 11 3 6 1018.4 1018.4 0.0

Latest Capital City Observations: Canberra | Sydney | Melbourne | Brisbane | Adelaide | Perth | Hobart | Darwin

Other Formats:

Comma delimited format used in spreadsheet applications
http://www.bom.gov.au/fwo/IDQ60901/IDQ60901.94576.axf

JavaScript Object Notation format (JSON) in row-major order
http://www.bom.gov.au/fwo/IDQ60901/IDQ60901.94576.json